Pagrindinis puslapis
METAR-TAF:

METAR-TAF

Oro uostai :

Frontone, Italija

platuma: 43-31N, ilguma: 012-44E, Aukštis: 570 m

Dabartinis oras

Ataskaita buvo paskelbta 1 valandą ir 0 minutes, ne 22:55 UTC
Vėjas 6 kt iš Pietų/Pietvakarių
Temperatūra 9°C
Drėgmė 37%
Slėgis 1026 hPa
Matomumas 10 km arba daugiau
nėra debesų žemiau 1500 m ir nėra kamuolinių lietaus debesų

METAR: LIVF 072255Z 20006KT CAVOK 09/M05 Q1026 RMK SKC MON LIB VAL NIL VIS MIN 9999

Laikas: 01:55 (23:55 UTC)


TAF: trūkstamas

Orai ataskaitas ir orų prognozės (METAR, TAF).

turimą stotys yra geltonos ir raudonos taškus žemėlapyje.

Perkelti pele per norėdami pamatyti stoties vardą.

Tada spustelėkite, norėdami matyti oro stebėjimo ir prognozės.

Norėdami pakeisti žemėlapį: spustelėkite ant žalios mygtukų su juodo kryžiaus žemyn,; žalią mygtuką su brūkšneliu, jei norite nutolinti; arba žalių rodyklių gretimoms žemėlapius.


METAR-TAF: